createdAt,value
2022-08-17T00:01:51.568Z,13.70
2022-08-17T00:04:39.150Z,13.70
2022-08-17T00:07:26.348Z,13.70
2022-08-17T00:10:13.619Z,13.70
2022-08-17T00:13:06.451Z,13.70
2022-08-17T00:15:53.789Z,13.80
2022-08-17T00:19:01.476Z,13.80
2022-08-17T00:22:34.815Z,13.90
2022-08-17T00:24:57.088Z,13.90
2022-08-17T00:27:43.976Z,13.90
2022-08-17T00:30:52.756Z,13.90
2022-08-17T00:33:40.343Z,13.90
2022-08-17T00:36:27.864Z,14.00
2022-08-17T00:39:15.116Z,14.00
2022-08-17T00:42:02.204Z,14.10
2022-08-17T00:44:49.727Z,14.10
2022-08-17T00:47:38.270Z,14.20
2022-08-17T00:50:25.252Z,14.30
2022-08-17T00:53:12.818Z,14.30
2022-08-17T00:56:02.925Z,14.40
2022-08-17T00:58:52.836Z,14.40
2022-08-17T01:01:42.659Z,14.30
2022-08-17T01:04:32.333Z,14.30
2022-08-17T01:07:21.257Z,14.40
2022-08-17T01:10:58.195Z,14.50
2022-08-17T01:13:19.197Z,14.60
2022-08-17T01:16:10.812Z,14.60
2022-08-17T01:19:01.128Z,14.70
2022-08-17T01:21:54.920Z,14.60
2022-08-17T01:24:47.411Z,14.90
2022-08-17T01:27:35.075Z,15.00
2022-08-17T01:30:56.614Z,15.10
2022-08-17T01:33:30.694Z,15.10
2022-08-17T01:36:17.798Z,15.10
2022-08-17T01:39:05.492Z,15.10
2022-08-17T01:41:59.670Z,15.10
2022-08-17T01:44:46.703Z,15.00
2022-08-17T01:47:35.383Z,15.00
2022-08-17T01:50:27.061Z,15.00
2022-08-17T01:53:17.660Z,15.00
2022-08-17T01:56:09.082Z,15.00
2022-08-17T01:58:58.147Z,15.00
2022-08-17T02:01:46.579Z,14.90
2022-08-17T02:04:33.751Z,14.90
2022-08-17T02:07:20.984Z,14.90
2022-08-17T02:10:18.961Z,14.90
2022-08-17T02:13:07.197Z,14.80
2022-08-17T02:15:55.315Z,14.80
2022-08-17T02:18:42.585Z,14.90
2022-08-17T02:21:30.283Z,14.80
2022-08-17T02:25:00.720Z,14.80
2022-08-17T02:27:29.523Z,14.90
2022-08-17T02:31:01.562Z,14.90
2022-08-17T02:33:42.081Z,14.90
2022-08-17T02:36:30.613Z,14.90
2022-08-17T02:39:18.685Z,14.90
2022-08-17T02:42:07.193Z,14.90
2022-08-17T02:44:54.409Z,15.00
2022-08-17T02:47:42.301Z,15.00
2022-08-17T02:50:31.060Z,15.00
2022-08-17T02:53:18.182Z,15.10
2022-08-17T02:56:05.704Z,15.10
2022-08-17T02:58:52.691Z,15.10
2022-08-17T03:01:39.883Z,15.20
2022-08-17T03:04:27.205Z,15.20
2022-08-17T03:07:15.302Z,15.20
2022-08-17T03:10:02.256Z,15.20
2022-08-17T03:12:50.464Z,15.20
2022-08-17T03:15:40.566Z,15.20
2022-08-17T03:18:31.008Z,15.20
2022-08-17T03:21:18.415Z,15.30
2022-08-17T03:24:09.277Z,15.30
2022-08-17T03:26:56.345Z,15.40
2022-08-17T03:29:43.234Z,15.50
2022-08-17T03:32:30.612Z,15.60
2022-08-17T03:35:21.849Z,15.70
2022-08-17T03:38:10.160Z,15.80
2022-08-17T03:40:59.892Z,15.90
2022-08-17T03:43:46.978Z,15.90
2022-08-17T03:46:51.229Z,15.80
2022-08-17T03:49:55.628Z,15.80
2022-08-17T03:53:11.838Z,15.80
2022-08-17T03:56:16.112Z,15.80
2022-08-17T03:59:03.516Z,15.80
2022-08-17T04:01:54.885Z,15.90
2022-08-17T04:04:42.146Z,16.00
2022-08-17T04:07:31.279Z,16.00
2022-08-17T04:10:18.623Z,15.90
2022-08-17T04:13:07.352Z,15.90
2022-08-17T04:15:54.991Z,15.90
2022-08-17T04:18:41.873Z,15.90
2022-08-17T04:21:29.491Z,15.90
2022-08-17T04:24:16.474Z,15.90
2022-08-17T04:27:03.312Z,16.00
2022-08-17T04:29:55.656Z,16.00
2022-08-17T04:33:05.819Z,16.00
2022-08-17T04:35:56.804Z,16.10
2022-08-17T04:38:45.402Z,16.20
2022-08-17T04:41:50.320Z,16.20
2022-08-17T04:44:38.176Z,16.20
2022-08-17T04:47:26.644Z,16.20
2022-08-17T04:50:13.647Z,16.30
2022-08-17T04:53:01.561Z,16.40
2022-08-17T04:55:49.240Z,16.40
2022-08-17T04:58:36.521Z,16.40
2022-08-17T05:01:25.213Z,16.40
2022-08-17T05:04:33.518Z,16.40
2022-08-17T05:07:24.589Z,16.50
2022-08-17T05:10:13.414Z,16.70
2022-08-17T05:13:01.517Z,16.80
2022-08-17T05:15:50.956Z,16.90
2022-08-17T05:18:38.984Z,17.00
2022-08-17T05:21:28.350Z,17.00
2022-08-17T05:24:16.713Z,17.10
2022-08-17T05:27:22.820Z,17.10
2022-08-17T05:30:11.402Z,17.20
2022-08-17T05:33:00.130Z,17.30
2022-08-17T05:35:50.269Z,17.30
2022-08-17T05:38:38.910Z,17.40
2022-08-17T05:41:25.642Z,17.30
2022-08-17T05:44:12.421Z,17.40
2022-08-17T05:47:01.630Z,17.50
2022-08-17T05:49:49.129Z,17.60
2022-08-17T05:52:46.289Z,17.50
2022-08-17T05:55:45.181Z,17.60
2022-08-17T05:58:39.837Z,17.60
2022-08-17T06:01:36.414Z,17.50
2022-08-17T06:04:41.317Z,17.60
2022-08-17T06:07:37.758Z,17.60
2022-08-17T06:10:31.549Z,17.70
2022-08-17T06:13:37.749Z,17.70
2022-08-17T06:16:34.429Z,17.70
2022-08-17T06:19:28.680Z,17.80
2022-08-17T06:22:20.067Z,17.80
2022-08-17T06:25:13.735Z,17.90
2022-08-17T06:28:06.030Z,18.00
2022-08-17T06:31:00.683Z,18.00
2022-08-17T06:33:48.534Z,18.10
2022-08-17T06:36:49.668Z,18.20
2022-08-17T06:39:49.369Z,18.30
2022-08-17T06:43:06.680Z,18.30
2022-08-17T06:46:04.107Z,18.40
2022-08-17T06:49:02.600Z,18.40
2022-08-17T06:51:58.819Z,18.40
2022-08-17T06:54:55.719Z,18.40
2022-08-17T06:57:47.746Z,18.40
2022-08-17T07:00:40.788Z,18.40
2022-08-17T07:03:38.021Z,18.60
2022-08-17T07:06:29.774Z,19.00
2022-08-17T07:09:23.279Z,19.40
2022-08-17T07:12:22.485Z,19.80
2022-08-17T07:15:13.779Z,20.00
2022-08-17T07:18:01.141Z,20.00
2022-08-17T07:20:53.823Z,20.00
2022-08-17T07:23:56.114Z,20.20
2022-08-17T07:26:43.012Z,20.70
2022-08-17T07:29:33.802Z,20.90
2022-08-17T07:32:25.891Z,22.00
2022-08-17T07:35:17.708Z,22.90
2022-08-17T07:38:25.725Z,22.90
2022-08-17T07:41:14.186Z,23.00
2022-08-17T07:44:01.369Z,22.70
2022-08-17T07:47:08.148Z,22.80
2022-08-17T07:49:55.474Z,23.20
2022-08-17T07:52:50.524Z,23.70
2022-08-17T07:55:41.812Z,24.10
2022-08-17T07:58:28.825Z,23.40
2022-08-17T08:01:18.377Z,23.20
2022-08-17T08:04:58.941Z,23.10
2022-08-17T08:07:39.736Z,23.60
2022-08-17T08:10:33.592Z,25.20
2022-08-17T08:13:27.960Z,24.90
2022-08-17T08:16:27.629Z,24.40
2022-08-17T08:19:20.868Z,24.40
2022-08-17T08:22:13.049Z,24.30
2022-08-17T08:25:09.443Z,24.50
2022-08-17T08:28:07.421Z,25.40
2022-08-17T08:31:05.048Z,25.60
2022-08-17T08:34:05.898Z,24.90
2022-08-17T08:37:17.693Z,25.80
2022-08-17T08:40:14.590Z,26.60
2022-08-17T08:43:10.187Z,26.40
2022-08-17T08:46:10.492Z,27.10
2022-08-17T08:49:45.576Z,27.40
2022-08-17T08:52:58.707Z,28.00
2022-08-17T08:55:53.184Z,28.90
2022-08-17T08:58:50.832Z,29.40
2022-08-17T09:01:49.975Z,30.00
2022-08-17T09:05:13.925Z,30.70
2022-08-17T09:08:11.106Z,31.70
2022-08-17T09:11:04.529Z,32.50
2022-08-17T09:14:03.202Z,32.90
2022-08-17T09:17:06.560Z,33.30
2022-08-17T09:19:57.891Z,33.10
2022-08-17T09:22:50.381Z,32.50
2022-08-17T09:25:52.066Z,31.80
2022-08-17T09:28:42.954Z,31.10
2022-08-17T09:31:48.690Z,30.90
2022-08-17T09:34:43.609Z,30.10
2022-08-17T09:37:45.199Z,29.10
2022-08-17T09:40:39.880Z,28.30
2022-08-17T09:43:35.317Z,27.40
2022-08-17T09:46:26.303Z,26.20
2022-08-17T09:49:24.615Z,24.90
2022-08-17T09:52:19.563Z,24.30
2022-08-17T09:55:07.612Z,23.60
2022-08-17T09:58:05.040Z,23.10
2022-08-17T10:00:58.434Z,22.60
2022-08-17T10:04:10.064Z,22.10
2022-08-17T10:07:04.414Z,21.60
2022-08-17T10:10:02.013Z,21.50
2022-08-17T10:12:57.675Z,21.80
2022-08-17T10:15:54.369Z,22.20
2022-08-17T10:18:47.718Z,23.30
2022-08-17T10:22:00.944Z,23.90
2022-08-17T10:25:23.459Z,24.30
2022-08-17T10:28:19.891Z,24.50
2022-08-17T10:34:38.734Z,26.10
2022-08-17T10:38:03.550Z,26.60
2022-08-17T10:40:57.334Z,27.40
2022-08-17T10:44:38.495Z,27.10
2022-08-17T10:47:10.536Z,27.10
2022-08-17T10:49:57.652Z,27.50
2022-08-17T10:52:52.387Z,27.20
2022-08-17T10:55:41.097Z,26.80
2022-08-17T10:58:40.193Z,25.80
2022-08-17T11:01:58.384Z,25.80
2022-08-17T11:04:57.263Z,25.70
2022-08-17T11:08:08.938Z,25.60
2022-08-17T11:11:36.010Z,25.10
2022-08-17T11:14:36.899Z,25.30
2022-08-17T11:17:45.023Z,26.30
2022-08-17T11:21:11.461Z,25.10
2022-08-17T11:24:11.736Z,24.60
2022-08-17T11:27:12.390Z,25.90
2022-08-17T11:30:02.907Z,26.00
2022-08-17T11:32:54.753Z,26.80
2022-08-17T11:35:49.486Z,26.30
2022-08-17T11:38:47.021Z,26.30
2022-08-17T11:41:44.840Z,26.80
2022-08-17T11:44:53.671Z,26.70
2022-08-17T11:48:26.672Z,27.10
2022-08-17T11:51:33.514Z,27.00
2022-08-17T11:54:42.712Z,27.30
2022-08-17T11:58:00.258Z,27.70
2022-08-17T12:00:59.202Z,27.10
2022-08-17T12:03:58.802Z,26.50
2022-08-17T12:06:52.791Z,26.60
2022-08-17T12:09:42.486Z,26.70
2022-08-17T12:12:35.789Z,26.40
2022-08-17T12:15:30.326Z,26.20
2022-08-17T12:18:22.178Z,26.10
2022-08-17T12:21:36.280Z,26.20
2022-08-17T12:24:37.697Z,26.10
2022-08-17T12:28:02.039Z,26.50
2022-08-17T12:30:37.567Z,26.80
2022-08-17T12:33:28.864Z,27.40
2022-08-17T12:36:24.574Z,27.80
2022-08-17T12:39:12.890Z,27.60
2022-08-17T12:42:04.677Z,27.70
2022-08-17T12:44:51.568Z,27.10
2022-08-17T12:47:39.480Z,26.90
2022-08-17T12:50:29.571Z,27.00
2022-08-17T12:53:23.470Z,26.90
2022-08-17T12:56:14.422Z,27.00
2022-08-17T12:59:02.821Z,27.30
2022-08-17T13:01:50.362Z,27.50
2022-08-17T13:04:41.310Z,27.60
2022-08-17T13:07:35.228Z,27.60
2022-08-17T13:10:31.616Z,27.50
2022-08-17T13:13:24.388Z,27.50
2022-08-17T13:16:21.556Z,27.10
2022-08-17T13:19:10.551Z,26.80
2022-08-17T13:22:00.374Z,26.80
2022-08-17T13:24:54.383Z,26.50
2022-08-17T13:27:52.778Z,26.70
2022-08-17T13:30:41.508Z,26.60
2022-08-17T13:33:43.379Z,26.30
2022-08-17T13:36:33.474Z,26.10
2022-08-17T13:39:22.211Z,26.20
2022-08-17T13:42:51.620Z,26.20
2022-08-17T13:45:50.740Z,26.80
2022-08-17T13:48:40.327Z,27.20
2022-08-17T13:51:44.747Z,27.10
2022-08-17T13:54:34.262Z,26.70
2022-08-17T13:57:26.352Z,26.30
2022-08-17T14:00:19.276Z,26.50
2022-08-17T14:03:07.491Z,27.00
2022-08-17T14:05:56.587Z,26.70
2022-08-17T14:08:43.734Z,26.80
2022-08-17T14:11:30.407Z,26.50
2022-08-17T14:14:18.333Z,26.20
2022-08-17T14:17:05.595Z,26.20
2022-08-17T14:19:54.871Z,26.10
2022-08-17T14:22:46.754Z,26.30
2022-08-17T14:25:33.751Z,26.40
2022-08-17T14:28:20.884Z,26.30
2022-08-17T14:31:10.649Z,26.20
2022-08-17T14:33:59.073Z,26.30
2022-08-17T14:36:48.639Z,26.60
2022-08-17T14:39:37.026Z,26.50
2022-08-17T14:42:26.290Z,26.30
2022-08-17T14:45:30.003Z,26.30
2022-08-17T14:48:20.123Z,26.10
2022-08-17T14:51:08.245Z,25.90
2022-08-17T14:53:55.158Z,26.20
2022-08-17T14:56:43.505Z,26.40
2022-08-17T14:59:32.355Z,26.30
2022-08-17T15:02:19.629Z,26.00
2022-08-17T15:05:07.856Z,26.20
2022-08-17T15:07:55.930Z,26.10
2022-08-17T15:10:42.898Z,26.10
2022-08-17T15:13:32.287Z,26.10
2022-08-17T15:16:20.041Z,26.00
2022-08-17T15:19:08.426Z,26.00
2022-08-17T15:21:55.940Z,25.80
2022-08-17T15:24:43.555Z,25.70
2022-08-17T15:27:32.102Z,25.50
2022-08-17T15:30:21.482Z,25.40
2022-08-17T15:33:08.694Z,25.30
2022-08-17T15:35:58.508Z,25.10
2022-08-17T15:38:46.828Z,25.00
2022-08-17T15:41:34.529Z,24.90
2022-08-17T15:44:21.795Z,24.70
2022-08-17T15:47:18.585Z,24.50
2022-08-17T15:50:06.452Z,24.20
2022-08-17T15:53:02.663Z,23.80
2022-08-17T15:55:49.838Z,23.30
2022-08-17T15:58:40.213Z,22.90
2022-08-17T16:03:01.033Z,22.40
2022-08-17T16:04:40.824Z,21.90
2022-08-17T16:07:31.628Z,21.30
2022-08-17T16:10:19.426Z,20.70
2022-08-17T16:13:17.378Z,20.20
2022-08-17T16:16:05.525Z,19.70
2022-08-17T16:18:59.270Z,19.30
2022-08-17T16:21:50.582Z,19.10
2022-08-17T16:24:43.497Z,18.90
2022-08-17T16:27:34.298Z,18.80
2022-08-17T16:30:23.088Z,18.60
2022-08-17T16:33:12.605Z,18.40
2022-08-17T16:35:59.967Z,18.40
2022-08-17T16:38:49.028Z,18.40
2022-08-17T16:41:47.755Z,18.50
2022-08-17T16:44:34.784Z,18.60
2022-08-17T16:47:22.662Z,18.70
2022-08-17T16:50:12.613Z,18.50
2022-08-17T16:53:10.466Z,18.40
2022-08-17T16:55:59.063Z,18.50
2022-08-17T16:58:46.068Z,18.70
2022-08-17T17:01:39.877Z,18.70
2022-08-17T17:04:27.686Z,18.50
2022-08-17T17:07:33.942Z,18.60
2022-08-17T17:10:23.518Z,18.70
2022-08-17T17:13:22.046Z,18.70
2022-08-17T17:16:19.334Z,18.70
2022-08-17T17:19:13.043Z,18.70
2022-08-17T17:22:08.542Z,18.70
2022-08-17T17:25:08.448Z,18.70
2022-08-17T17:28:02.390Z,18.40
2022-08-17T17:30:57.959Z,18.10
2022-08-17T17:33:52.982Z,18.10
2022-08-17T17:36:45.345Z,18.10
2022-08-17T17:39:43.804Z,18.10
2022-08-17T17:42:33.678Z,18.00
2022-08-17T17:45:23.890Z,18.00
2022-08-17T17:48:12.556Z,17.80
2022-08-17T17:51:10.878Z,17.80
2022-08-17T17:54:12.647Z,17.80
2022-08-17T17:57:04.299Z,17.80
2022-08-17T17:59:59.842Z,17.80
2022-08-17T18:03:06.366Z,17.80
2022-08-17T18:06:17.398Z,17.70
2022-08-17T18:09:22.028Z,17.60
2022-08-17T18:12:19.750Z,17.50
2022-08-17T18:15:24.956Z,17.50
2022-08-17T18:18:37.969Z,17.40
2022-08-17T18:21:30.467Z,17.40
2022-08-17T18:24:31.169Z,17.40
2022-08-17T18:27:27.680Z,17.40
2022-08-17T18:30:27.361Z,17.20
2022-08-17T18:33:23.238Z,17.10
2022-08-17T18:36:11.837Z,17.10
2022-08-17T18:39:19.714Z,17.10
2022-08-17T18:42:26.016Z,17.10
2022-08-17T18:45:13.602Z,16.90
2022-08-17T18:48:01.418Z,16.80
2022-08-17T18:50:51.478Z,16.70
2022-08-17T18:53:42.174Z,16.70
2022-08-17T18:56:33.146Z,16.70
2022-08-17T18:59:36.242Z,16.70
2022-08-17T19:02:43.353Z,16.50
2022-08-17T19:05:36.330Z,16.20
2022-08-17T19:08:28.382Z,15.90
2022-08-17T19:11:25.720Z,15.70
2022-08-17T19:14:16.614Z,15.50
2022-08-17T19:17:08.761Z,15.30
2022-08-17T19:20:02.520Z,15.20
2022-08-17T19:23:01.677Z,15.10
2022-08-17T19:25:52.535Z,15.00
2022-08-17T19:28:48.471Z,14.90
2022-08-17T19:31:37.150Z,15.00
2022-08-17T19:34:32.304Z,14.90
2022-08-17T19:37:39.563Z,14.80
2022-08-17T19:40:52.190Z,14.80
2022-08-17T19:44:11.576Z,14.80
2022-08-17T19:47:10.448Z,14.70
2022-08-17T19:50:04.132Z,14.70
2022-08-17T19:52:55.913Z,14.70
2022-08-17T19:55:52.853Z,14.70
2022-08-17T19:58:55.433Z,14.60
2022-08-17T20:01:46.994Z,14.60
2022-08-17T20:04:41.194Z,14.60
2022-08-17T20:07:37.140Z,14.50
2022-08-17T20:10:38.718Z,14.40
2022-08-17T20:13:34.899Z,14.50
2022-08-17T20:16:21.792Z,14.50
2022-08-17T20:19:17.967Z,14.60
2022-08-17T20:22:12.606Z,14.60
2022-08-17T20:25:07.607Z,14.60
2022-08-17T20:28:03.830Z,14.60
2022-08-17T20:30:55.601Z,14.60
2022-08-17T20:33:42.672Z,14.50
2022-08-17T20:36:32.388Z,14.50
2022-08-17T20:39:34.821Z,14.50
2022-08-17T20:42:40.726Z,14.50
2022-08-17T20:46:04.320Z,14.50
2022-08-17T20:48:56.866Z,14.40
2022-08-17T20:52:00.815Z,14.40
2022-08-17T20:54:53.215Z,14.40
2022-08-17T20:57:48.941Z,14.40
2022-08-17T21:00:50.265Z,14.40
2022-08-17T21:03:52.246Z,14.40
2022-08-17T21:07:29.147Z,14.40
2022-08-17T21:10:31.582Z,14.40
2022-08-17T21:13:58.072Z,14.40
2022-08-17T21:17:02.401Z,14.40
2022-08-17T21:20:17.394Z,14.40
2022-08-17T21:23:28.441Z,14.40
2022-08-17T21:26:30.394Z,14.30
2022-08-17T21:29:31.212Z,14.20
2022-08-17T21:32:28.173Z,14.20
2022-08-17T21:35:48.391Z,14.10
2022-08-17T21:38:41.610Z,14.00
2022-08-17T21:41:33.505Z,14.00
2022-08-17T21:44:30.544Z,13.90
2022-08-17T21:47:23.659Z,14.00
2022-08-17T21:50:20.724Z,14.10
2022-08-17T21:53:09.671Z,14.10
2022-08-17T21:55:56.702Z,14.00
2022-08-17T21:58:48.569Z,14.00
2022-08-17T22:01:38.395Z,14.00
2022-08-17T22:04:31.219Z,14.00
2022-08-17T22:07:36.544Z,14.00
2022-08-17T22:10:33.261Z,14.10
2022-08-17T22:13:24.093Z,14.10
2022-08-17T22:16:28.981Z,14.10
2022-08-17T22:19:17.808Z,14.10
2022-08-17T22:22:07.062Z,14.10
2022-08-17T22:24:57.813Z,14.00
2022-08-17T22:27:56.499Z,14.00
2022-08-17T22:30:44.814Z,14.10
2022-08-17T22:33:40.325Z,14.00
2022-08-17T22:36:29.777Z,14.00
2022-08-17T22:39:41.725Z,14.00
2022-08-17T22:42:28.934Z,14.00
2022-08-17T22:45:16.303Z,13.90
2022-08-17T22:48:03.766Z,13.90
2022-08-17T22:50:53.281Z,13.90
2022-08-17T22:54:05.886Z,13.90
2022-08-17T22:57:15.291Z,13.90
2022-08-17T23:00:27.373Z,13.90
2022-08-17T23:03:18.980Z,14.00
2022-08-17T23:06:10.475Z,13.90
2022-08-17T23:08:58.087Z,13.90
2022-08-17T23:11:49.511Z,14.00
2022-08-17T23:14:41.008Z,14.10
2022-08-17T23:17:33.863Z,13.90
2022-08-17T23:20:23.675Z,14.00
2022-08-17T23:23:13.923Z,14.00
2022-08-17T23:26:00.840Z,14.00
2022-08-17T23:28:47.942Z,14.00
2022-08-17T23:31:35.656Z,14.00
2022-08-17T23:34:23.266Z,14.00
2022-08-17T23:37:12.610Z,14.00
2022-08-17T23:40:01.465Z,14.00
2022-08-17T23:42:48.460Z,14.00
2022-08-17T23:45:35.684Z,14.00
2022-08-17T23:48:32.740Z,14.00
2022-08-17T23:51:26.127Z,14.00
2022-08-17T23:54:20.063Z,14.00
2022-08-17T23:57:09.217Z,14.00
2022-08-17T23:59:56.765Z,14.00
